sensor_id;sensor_type;location;lat;lon;timestamp;temperature;humidity
22607;DHT22;11470;20.968;105.834;2023-11-19T00:02:23;19.20;99.90
22607;DHT22;11470;20.968;105.834;2023-11-19T00:07:28;19.30;99.90
22607;DHT22;11470;20.968;105.834;2023-11-19T00:12:42;19.60;99.90
22607;DHT22;11470;20.968;105.834;2023-11-19T00:17:48;19.70;99.90
22607;DHT22;11470;20.968;105.834;2023-11-19T00:22:53;19.60;99.90
22607;DHT22;11470;20.968;105.834;2023-11-19T00:27:58;19.60;99.90
22607;DHT22;11470;20.968;105.834;2023-11-19T00:33:04;19.60;99.90
22607;DHT22;11470;20.968;105.834;2023-11-19T00:38:09;19.80;99.90
22607;DHT22;11470;20.968;105.834;2023-11-19T00:43:14;19.80;99.90
22607;DHT22;11470;20.968;105.834;2023-11-19T00:48:19;20.10;99.90
22607;DHT22;11470;20.968;105.834;2023-11-19T00:53:23;20.60;99.90
22607;DHT22;11470;20.968;105.834;2023-11-19T00:58:28;20.80;99.90
22607;DHT22;11470;20.968;105.834;2023-11-19T01:03:33;21.00;99.90
22607;DHT22;11470;20.968;105.834;2023-11-19T01:08:39;20.90;99.90
22607;DHT22;11470;20.968;105.834;2023-11-19T01:13:45;20.80;99.90
22607;DHT22;11470;20.968;105.834;2023-11-19T01:18:49;20.90;99.90
22607;DHT22;11470;20.968;105.834;2023-11-19T01:24:01;21.00;99.90
22607;DHT22;11470;20.968;105.834;2023-11-19T01:29:08;21.00;99.90
22607;DHT22;11470;20.968;105.834;2023-11-19T01:34:13;21.00;99.90
22607;DHT22;11470;20.968;105.834;2023-11-19T01:39:18;21.00;99.90
22607;DHT22;11470;20.968;105.834;2023-11-19T01:44:24;21.10;99.90
22607;DHT22;11470;20.968;105.834;2023-11-19T01:49:28;21.20;99.90
22607;DHT22;11470;20.968;105.834;2023-11-19T01:54:35;21.80;99.90
22607;DHT22;11470;20.968;105.834;2023-11-19T01:59:40;23.10;99.90
22607;DHT22;11470;20.968;105.834;2023-11-19T02:04:50;23.80;99.90
22607;DHT22;11470;20.968;105.834;2023-11-19T02:09:56;23.40;99.90
22607;DHT22;11470;20.968;105.834;2023-11-19T02:15:03;23.50;99.90
22607;DHT22;11470;20.968;105.834;2023-11-19T02:20:09;24.00;99.90
22607;DHT22;11470;20.968;105.834;2023-11-19T02:25:32;24.10;99.90
22607;DHT22;11470;20.968;105.834;2023-11-19T02:30:38;23.80;99.90
22607;DHT22;11470;20.968;105.834;2023-11-19T02:35:43;23.80;99.90
22607;DHT22;11470;20.968;105.834;2023-11-19T02:40:48;23.50;99.90
22607;DHT22;11470;20.968;105.834;2023-11-19T02:45:53;24.30;99.90
22607;DHT22;11470;20.968;105.834;2023-11-19T02:51:00;24.40;99.90
22607;DHT22;11470;20.968;105.834;2023-11-19T02:56:11;24.60;99.90
22607;DHT22;11470;20.968;105.834;2023-11-19T03:01:46;24.80;99.90
22607;DHT22;11470;20.968;105.834;2023-11-19T03:06:54;24.90;99.90
22607;DHT22;11470;20.968;105.834;2023-11-19T03:11:59;25.00;99.90
22607;DHT22;11470;20.968;105.834;2023-11-19T03:17:04;25.20;99.90
22607;DHT22;11470;20.968;105.834;2023-11-19T03:22:10;25.50;99.90
22607;DHT22;11470;20.968;105.834;2023-11-19T03:27:15;25.70;99.90
22607;DHT22;11470;20.968;105.834;2023-11-19T03:32:19;25.90;99.90
22607;DHT22;11470;20.968;105.834;2023-11-19T03:37:25;25.70;99.90
22607;DHT22;11470;20.968;105.834;2023-11-19T03:42:30;25.80;99.90
22607;DHT22;11470;20.968;105.834;2023-11-19T03:47:36;25.80;99.90
22607;DHT22;11470;20.968;105.834;2023-11-19T03:52:41;25.90;99.90
22607;DHT22;11470;20.968;105.834;2023-11-19T03:57:46;25.90;99.90
22607;DHT22;11470;20.968;105.834;2023-11-19T04:02:53;25.80;99.90
22607;DHT22;11470;20.968;105.834;2023-11-19T04:07:58;25.90;99.90
22607;DHT22;11470;20.968;105.834;2023-11-19T04:13:03;26.60;99.90
22607;DHT22;11470;20.968;105.834;2023-11-19T04:18:09;29.10;99.90
22607;DHT22;11470;20.968;105.834;2023-11-19T04:23:14;31.10;98.20
22607;DHT22;11470;20.968;105.834;2023-11-19T04:28:19;31.40;96.10
22607;DHT22;11470;20.968;105.834;2023-11-19T04:33:25;30.90;95.70
22607;DHT22;11470;20.968;105.834;2023-11-19T04:38:30;31.70;94.30
22607;DHT22;11470;20.968;105.834;2023-11-19T04:43:35;31.70;93.00
22607;DHT22;11470;20.968;105.834;2023-11-19T04:48:40;32.10;92.20
22607;DHT22;11470;20.968;105.834;2023-11-19T04:53:46;32.50;91.30
22607;DHT22;11470;20.968;105.834;2023-11-19T04:58:51;33.20;89.40
22607;DHT22;11470;20.968;105.834;2023-11-19T05:03:57;34.10;83.60
22607;DHT22;11470;20.968;105.834;2023-11-19T05:09:05;33.60;75.70
22607;DHT22;11470;20.968;105.834;2023-11-19T05:14:12;34.30;79.10
22607;DHT22;11470;20.968;105.834;2023-11-19T05:19:16;34.60;79.80
22607;DHT22;11470;20.968;105.834;2023-11-19T05:24:21;34.10;80.90
22607;DHT22;11470;20.968;105.834;2023-11-19T05:29:27;33.40;82.80
22607;DHT22;11470;20.968;105.834;2023-11-19T05:34:46;32.90;84.40
22607;DHT22;11470;20.968;105.834;2023-11-19T05:39:54;32.70;85.00
22607;DHT22;11470;20.968;105.834;2023-11-19T05:44:58;32.50;84.80
22607;DHT22;11470;20.968;105.834;2023-11-19T05:50:04;33.20;84.70
22607;DHT22;11470;20.968;105.834;2023-11-19T05:55:10;33.70;84.10
22607;DHT22;11470;20.968;105.834;2023-11-19T06:00:15;33.70;82.20
22607;DHT22;11470;20.968;105.834;2023-11-19T06:05:22;34.20;81.90
22607;DHT22;11470;20.968;105.834;2023-11-19T06:10:28;34.60;81.90
22607;DHT22;11470;20.968;105.834;2023-11-19T06:15:36;34.80;78.20
22607;DHT22;11470;20.968;105.834;2023-11-19T06:20:42;35.00;79.70
22607;DHT22;11470;20.968;105.834;2023-11-19T06:25:47;35.70;77.70
22607;DHT22;11470;20.968;105.834;2023-11-19T06:30:52;36.40;75.30
22607;DHT22;11470;20.968;105.834;2023-11-19T06:35:58;36.70;73.90
22607;DHT22;11470;20.968;105.834;2023-11-19T06:41:07;36.30;69.00
22607;DHT22;11470;20.968;105.834;2023-11-19T06:46:19;36.60;72.00
22607;DHT22;11470;20.968;105.834;2023-11-19T06:51:25;36.30;72.40
22607;DHT22;11470;20.968;105.834;2023-11-19T06:56:30;36.80;71.20
22607;DHT22;11470;20.968;105.834;2023-11-19T07:01:36;36.70;69.00
22607;DHT22;11470;20.968;105.834;2023-11-19T07:06:41;37.50;68.20
22607;DHT22;11470;20.968;105.834;2023-11-19T07:11:47;36.80;68.70
22607;DHT22;11470;20.968;105.834;2023-11-19T07:16:52;37.20;67.50
22607;DHT22;11470;20.968;105.834;2023-11-19T07:21:58;37.80;63.20
22607;DHT22;11470;20.968;105.834;2023-11-19T07:27:03;37.40;63.30
22607;DHT22;11470;20.968;105.834;2023-11-19T07:32:08;36.80;64.70
22607;DHT22;11470;20.968;105.834;2023-11-19T07:37:13;34.80;69.30
22607;DHT22;11470;20.968;105.834;2023-11-19T07:42:18;32.10;75.00
22607;DHT22;11470;20.968;105.834;2023-11-19T07:47:23;30.40;80.30
22607;DHT22;11470;20.968;105.834;2023-11-19T07:52:28;29.40;81.60
22607;DHT22;11470;20.968;105.834;2023-11-19T07:57:33;28.20;82.80
22607;DHT22;11470;20.968;105.834;2023-11-19T08:02:38;27.50;82.90
22607;DHT22;11470;20.968;105.834;2023-11-19T08:07:47;27.20;87.40
22607;DHT22;11470;20.968;105.834;2023-11-19T08:12:52;27.00;90.00
22607;DHT22;11470;20.968;105.834;2023-11-19T08:17:57;26.60;89.70
22607;DHT22;11470;20.968;105.834;2023-11-19T08:23:05;26.20;90.40
22607;DHT22;11470;20.968;105.834;2023-11-19T08:28:10;25.90;90.90
22607;DHT22;11470;20.968;105.834;2023-11-19T08:33:15;25.60;91.90
22607;DHT22;11470;20.968;105.834;2023-11-19T08:38:24;25.70;92.30
22607;DHT22;11470;20.968;105.834;2023-11-19T08:43:34;25.40;93.10
22607;DHT22;11470;20.968;105.834;2023-11-19T08:48:39;25.30;92.90
22607;DHT22;11470;20.968;105.834;2023-11-19T08:53:47;25.30;89.30
22607;DHT22;11470;20.968;105.834;2023-11-19T08:58:52;25.30;93.80
22607;DHT22;11470;20.968;105.834;2023-11-19T09:03:57;25.00;94.80
22607;DHT22;11470;20.968;105.834;2023-11-19T09:09:03;24.90;95.40
22607;DHT22;11470;20.968;105.834;2023-11-19T09:14:11;24.80;96.20
22607;DHT22;11470;20.968;105.834;2023-11-19T09:19:16;24.70;96.80
22607;DHT22;11470;20.968;105.834;2023-11-19T09:24:21;24.70;93.20
22607;DHT22;11470;20.968;105.834;2023-11-19T09:29:26;24.60;96.40
22607;DHT22;11470;20.968;105.834;2023-11-19T09:34:31;24.40;95.30
22607;DHT22;11470;20.968;105.834;2023-11-19T09:39:36;24.40;97.70
22607;DHT22;11470;20.968;105.834;2023-11-19T09:44:42;24.30;94.50
22607;DHT22;11470;20.968;105.834;2023-11-19T09:49:49;24.10;98.50
22607;DHT22;11470;20.968;105.834;2023-11-19T09:54:57;23.90;97.60
22607;DHT22;11470;20.968;105.834;2023-11-19T10:00:03;23.90;99.90
22607;DHT22;11470;20.968;105.834;2023-11-19T10:05:10;23.70;99.90
22607;DHT22;11470;20.968;105.834;2023-11-19T10:10:18;23.60;98.40
22607;DHT22;11470;20.968;105.834;2023-11-19T10:15:25;23.40;97.10
22607;DHT22;11470;20.968;105.834;2023-11-19T10:20:36;23.20;99.80
22607;DHT22;11470;20.968;105.834;2023-11-19T10:25:41;23.00;99.90
22607;DHT22;11470;20.968;105.834;2023-11-19T10:30:49;22.90;99.90
22607;DHT22;11470;20.968;105.834;2023-11-19T10:35:58;23.00;99.90
22607;DHT22;11470;20.968;105.834;2023-11-19T10:41:05;22.80;99.90
22607;DHT22;11470;20.968;105.834;2023-11-19T10:46:12;22.80;99.90
22607;DHT22;11470;20.968;105.834;2023-11-19T10:51:21;22.80;99.90
22607;DHT22;11470;20.968;105.834;2023-11-19T10:56:30;22.70;99.90
22607;DHT22;11470;20.968;105.834;2023-11-19T11:01:46;22.70;99.90
22607;DHT22;11470;20.968;105.834;2023-11-19T11:06:54;22.60;99.90
22607;DHT22;11470;20.968;105.834;2023-11-19T11:12:04;22.70;99.90
22607;DHT22;11470;20.968;105.834;2023-11-19T11:17:11;22.80;99.90
22607;DHT22;11470;20.968;105.834;2023-11-19T11:22:19;22.70;99.90
22607;DHT22;11470;20.968;105.834;2023-11-19T11:27:57;22.60;99.90
22607;DHT22;11470;20.968;105.834;2023-11-19T11:33:21;22.60;99.90
22607;DHT22;11470;20.968;105.834;2023-11-19T11:38:28;22.50;99.90
22607;DHT22;11470;20.968;105.834;2023-11-19T11:43:47;22.30;99.90
22607;DHT22;11470;20.968;105.834;2023-11-19T11:48:53;22.30;99.90
22607;DHT22;11470;20.968;105.834;2023-11-19T11:53:58;22.20;99.90
22607;DHT22;11470;20.968;105.834;2023-11-19T11:59:08;22.20;99.90
22607;DHT22;11470;20.968;105.834;2023-11-19T12:04:26;22.10;99.90
22607;DHT22;11470;20.968;105.834;2023-11-19T12:09:32;22.00;99.90
22607;DHT22;11470;20.968;105.834;2023-11-19T12:20:04;22.00;99.90
22607;DHT22;11470;20.968;105.834;2023-11-19T12:25:16;22.00;99.90
22607;DHT22;11470;20.968;105.834;2023-11-19T12:30:24;21.90;99.90
22607;DHT22;11470;20.968;105.834;2023-11-19T12:35:30;21.90;99.90
22607;DHT22;11470;20.968;105.834;2023-11-19T12:40:35;21.90;99.90
22607;DHT22;11470;20.968;105.834;2023-11-19T12:45:40;21.90;99.90
22607;DHT22;11470;20.968;105.834;2023-11-19T12:50:56;22.00;99.90
22607;DHT22;11470;20.968;105.834;2023-11-19T12:56:09;21.90;99.90
22607;DHT22;11470;20.968;105.834;2023-11-19T13:01:24;21.80;99.90
22607;DHT22;11470;20.968;105.834;2023-11-19T13:06:30;21.70;99.90
22607;DHT22;11470;20.968;105.834;2023-11-19T13:11:36;21.60;99.90
22607;DHT22;11470;20.968;105.834;2023-11-19T13:16:41;21.60;99.90
22607;DHT22;11470;20.968;105.834;2023-11-19T13:21:53;21.60;99.90
22607;DHT22;11470;20.968;105.834;2023-11-19T13:26:58;21.50;99.90
22607;DHT22;11470;20.968;105.834;2023-11-19T13:32:03;21.50;99.90
22607;DHT22;11470;20.968;105.834;2023-11-19T13:37:08;21.30;99.90
22607;DHT22;11470;20.968;105.834;2023-11-19T13:42:13;21.00;99.90
22607;DHT22;11470;20.968;105.834;2023-11-19T13:47:18;20.90;99.90
22607;DHT22;11470;20.968;105.834;2023-11-19T13:52:23;20.80;99.90
22607;DHT22;11470;20.968;105.834;2023-11-19T13:57:30;20.70;99.90
22607;DHT22;11470;20.968;105.834;2023-11-19T14:02:36;20.70;99.90
22607;DHT22;11470;20.968;105.834;2023-11-19T14:07:41;20.70;99.90
22607;DHT22;11470;20.968;105.834;2023-11-19T14:12:46;20.60;99.90
22607;DHT22;11470;20.968;105.834;2023-11-19T14:17:52;20.60;99.90
22607;DHT22;11470;20.968;105.834;2023-11-19T14:22:57;20.60;99.90
22607;DHT22;11470;20.968;105.834;2023-11-19T14:28:01;20.90;99.90
22607;DHT22;11470;20.968;105.834;2023-11-19T14:33:09;20.90;99.90
22607;DHT22;11470;20.968;105.834;2023-11-19T14:38:14;20.80;99.90
22607;DHT22;11470;20.968;105.834;2023-11-19T14:43:19;20.80;99.90
22607;DHT22;11470;20.968;105.834;2023-11-19T14:48:24;20.80;99.90
22607;DHT22;11470;20.968;105.834;2023-11-19T14:53:29;20.80;99.90
22607;DHT22;11470;20.968;105.834;2023-11-19T14:58:34;20.70;99.90
22607;DHT22;11470;20.968;105.834;2023-11-19T15:03:39;20.70;99.90
22607;DHT22;11470;20.968;105.834;2023-11-19T15:08:46;20.60;99.90
22607;DHT22;11470;20.968;105.834;2023-11-19T15:13:51;20.50;99.90
22607;DHT22;11470;20.968;105.834;2023-11-19T15:18:57;20.40;99.90
22607;DHT22;11470;20.968;105.834;2023-11-19T15:24:08;20.40;99.90
22607;DHT22;11470;20.968;105.834;2023-11-19T15:29:13;20.40;99.90
22607;DHT22;11470;20.968;105.834;2023-11-19T15:34:19;20.50;99.90
22607;DHT22;11470;20.968;105.834;2023-11-19T15:39:24;20.50;99.90
22607;DHT22;11470;20.968;105.834;2023-11-19T15:44:30;20.50;99.90
22607;DHT22;11470;20.968;105.834;2023-11-19T15:49:35;20.50;99.90
22607;DHT22;11470;20.968;105.834;2023-11-19T15:54:41;20.50;99.90
22607;DHT22;11470;20.968;105.834;2023-11-19T15:59:46;20.40;99.90
22607;DHT22;11470;20.968;105.834;2023-11-19T16:04:52;20.20;99.90
22607;DHT22;11470;20.968;105.834;2023-11-19T16:09:57;20.20;99.90
22607;DHT22;11470;20.968;105.834;2023-11-19T16:15:02;20.20;99.90
22607;DHT22;11470;20.968;105.834;2023-11-19T16:20:08;20.10;99.90
22607;DHT22;11470;20.968;105.834;2023-11-19T16:25:15;20.10;99.90
22607;DHT22;11470;20.968;105.834;2023-11-19T16:30:20;20.10;99.90
22607;DHT22;11470;20.968;105.834;2023-11-19T16:35:27;20.20;99.90
22607;DHT22;11470;20.968;105.834;2023-11-19T16:40:32;20.20;99.90
22607;DHT22;11470;20.968;105.834;2023-11-19T16:45:42;20.30;99.90
22607;DHT22;11470;20.968;105.834;2023-11-19T16:50:48;20.40;99.90
22607;DHT22;11470;20.968;105.834;2023-11-19T16:55:57;20.40;99.90
22607;DHT22;11470;20.968;105.834;2023-11-19T17:01:02;20.40;99.90
22607;DHT22;11470;20.968;105.834;2023-11-19T17:06:08;20.50;99.90
22607;DHT22;11470;20.968;105.834;2023-11-19T17:11:13;20.40;99.90
22607;DHT22;11470;20.968;105.834;2023-11-19T17:16:18;20.30;99.90
22607;DHT22;11470;20.968;105.834;2023-11-19T17:21:24;20.10;99.90
22607;DHT22;11470;20.968;105.834;2023-11-19T17:26:29;20.00;99.90
22607;DHT22;11470;20.968;105.834;2023-11-19T17:31:37;19.90;99.90
22607;DHT22;11470;20.968;105.834;2023-11-19T17:36:42;20.00;99.90
22607;DHT22;11470;20.968;105.834;2023-11-19T17:41:47;19.90;99.90
22607;DHT22;11470;20.968;105.834;2023-11-19T17:46:52;19.90;99.90
22607;DHT22;11470;20.968;105.834;2023-11-19T17:51:57;20.00;99.90
22607;DHT22;11470;20.968;105.834;2023-11-19T17:57:03;20.20;99.90
22607;DHT22;11470;20.968;105.834;2023-11-19T18:02:09;20.40;99.90
22607;DHT22;11470;20.968;105.834;2023-11-19T18:07:14;20.50;99.90
22607;DHT22;11470;20.968;105.834;2023-11-19T18:12:20;20.40;99.90
22607;DHT22;11470;20.968;105.834;2023-11-19T18:17:26;20.20;99.90
22607;DHT22;11470;20.968;105.834;2023-11-19T18:22:31;20.10;99.90
22607;DHT22;11470;20.968;105.834;2023-11-19T18:27:37;20.00;99.90
22607;DHT22;11470;20.968;105.834;2023-11-19T18:32:46;19.80;99.90
22607;DHT22;11470;20.968;105.834;2023-11-19T18:37:51;19.90;99.90
22607;DHT22;11470;20.968;105.834;2023-11-19T18:42:56;19.90;99.90
22607;DHT22;11470;20.968;105.834;2023-11-19T18:48:01;19.90;99.90
22607;DHT22;11470;20.968;105.834;2023-11-19T18:53:07;19.80;99.90
22607;DHT22;11470;20.968;105.834;2023-11-19T18:58:12;19.80;99.90
22607;DHT22;11470;20.968;105.834;2023-11-19T19:03:17;19.80;99.90
22607;DHT22;11470;20.968;105.834;2023-11-19T19:08:26;19.80;99.90
22607;DHT22;11470;20.968;105.834;2023-11-19T19:13:31;19.70;99.90
22607;DHT22;11470;20.968;105.834;2023-11-19T19:18:36;19.60;99.90
22607;DHT22;11470;20.968;105.834;2023-11-19T19:23:42;19.50;99.90
22607;DHT22;11470;20.968;105.834;2023-11-19T19:28:47;19.50;99.90
22607;DHT22;11470;20.968;105.834;2023-11-19T19:33:53;19.50;99.90
22607;DHT22;11470;20.968;105.834;2023-11-19T19:39:02;19.50;99.90
22607;DHT22;11470;20.968;105.834;2023-11-19T19:44:18;19.50;99.90
22607;DHT22;11470;20.968;105.834;2023-11-19T19:49:24;19.60;99.90
22607;DHT22;11470;20.968;105.834;2023-11-19T19:54:30;19.60;99.90
22607;DHT22;11470;20.968;105.834;2023-11-19T19:59:38;19.70;99.90
22607;DHT22;11470;20.968;105.834;2023-11-19T20:04:44;19.70;99.90
22607;DHT22;11470;20.968;105.834;2023-11-19T20:09:52;19.60;99.90
22607;DHT22;11470;20.968;105.834;2023-11-19T20:14:57;19.60;99.90
22607;DHT22;11470;20.968;105.834;2023-11-19T20:20:05;19.60;99.90
22607;DHT22;11470;20.968;105.834;2023-11-19T20:25:11;19.50;99.90
22607;DHT22;11470;20.968;105.834;2023-11-19T20:30:18;19.40;99.90
22607;DHT22;11470;20.968;105.834;2023-11-19T20:35:23;19.30;99.90
22607;DHT22;11470;20.968;105.834;2023-11-19T20:40:28;19.30;99.90
22607;DHT22;11470;20.968;105.834;2023-11-19T20:45:33;19.30;99.90
22607;DHT22;11470;20.968;105.834;2023-11-19T20:50:39;19.20;99.90
22607;DHT22;11470;20.968;105.834;2023-11-19T20:55:44;19.20;99.90
22607;DHT22;11470;20.968;105.834;2023-11-19T21:00:50;19.10;99.90
22607;DHT22;11470;20.968;105.834;2023-11-19T21:05:55;19.10;99.90
22607;DHT22;11470;20.968;105.834;2023-11-19T21:11:00;19.10;99.90
22607;DHT22;11470;20.968;105.834;2023-11-19T21:16:06;19.10;99.90
22607;DHT22;11470;20.968;105.834;2023-11-19T21:21:11;19.00;99.90
22607;DHT22;11470;20.968;105.834;2023-11-19T21:26:16;18.90;99.90
22607;DHT22;11470;20.968;105.834;2023-11-19T21:31:21;18.90;99.90
22607;DHT22;11470;20.968;105.834;2023-11-19T21:36:26;18.90;99.90
22607;DHT22;11470;20.968;105.834;2023-11-19T21:41:32;18.90;99.90
22607;DHT22;11470;20.968;105.834;2023-11-19T21:46:37;18.80;99.90
22607;DHT22;11470;20.968;105.834;2023-11-19T21:51:42;18.80;99.90
22607;DHT22;11470;20.968;105.834;2023-11-19T21:56:47;18.80;99.90
22607;DHT22;11470;20.968;105.834;2023-11-19T22:01:53;18.80;99.90
22607;DHT22;11470;20.968;105.834;2023-11-19T22:06:58;18.80;99.90
22607;DHT22;11470;20.968;105.834;2023-11-19T22:12:04;18.80;99.90
22607;DHT22;11470;20.968;105.834;2023-11-19T22:17:09;18.70;99.90
22607;DHT22;11470;20.968;105.834;2023-11-19T22:22:14;18.70;99.90
22607;DHT22;11470;20.968;105.834;2023-11-19T22:27:19;18.60;99.90
22607;DHT22;11470;20.968;105.834;2023-11-19T22:32:24;18.60;99.90
22607;DHT22;11470;20.968;105.834;2023-11-19T22:37:32;18.60;99.90
22607;DHT22;11470;20.968;105.834;2023-11-19T22:42:38;18.70;99.90
22607;DHT22;11470;20.968;105.834;2023-11-19T22:47:43;18.70;99.90
22607;DHT22;11470;20.968;105.834;2023-11-19T22:52:48;18.60;99.90
22607;DHT22;11470;20.968;105.834;2023-11-19T22:57:53;18.50;99.90
22607;DHT22;11470;20.968;105.834;2023-11-19T23:03:01;18.50;99.90
22607;DHT22;11470;20.968;105.834;2023-11-19T23:08:09;18.30;99.90
22607;DHT22;11470;20.968;105.834;2023-11-19T23:13:16;18.20;99.90
22607;DHT22;11470;20.968;105.834;2023-11-19T23:18:22;18.20;99.90
22607;DHT22;11470;20.968;105.834;2023-11-19T23:23:27;18.10;99.90
22607;DHT22;11470;20.968;105.834;2023-11-19T23:28:32;18.40;99.90
22607;DHT22;11470;20.968;105.834;2023-11-19T23:33:37;18.70;99.90
22607;DHT22;11470;20.968;105.834;2023-11-19T23:38:46;18.60;99.90
22607;DHT22;11470;20.968;105.834;2023-11-19T23:43:53;18.60;99.90
22607;DHT22;11470;20.968;105.834;2023-11-19T23:48:58;18.50;99.90
22607;DHT22;11470;20.968;105.834;2023-11-19T23:54:03;18.60;99.90
22607;DHT22;11470;20.968;105.834;2023-11-19T23:59:09;18.70;99.90
